Time;durP1;ratioP1;P1;durP2;ratioP2;P2;SDS_P1;SDS_P2;PMS_P1;PMS_P2;Temp;Humidity;BMP_temperature;BMP_pressure;BME280_temperature;BME280_humidity;BME280_pressure;Samples;Min_cycle;Max_cycle;Signal;HPM_P1;HPM_P2
2022/10/18 00:00:50;;;;;;;0.00;0.00;;;15.70;99.90;;;;;;5023922;28;20521;-75
2022/10/18 00:03:17;;;;;;;0.00;0.00;;;15.70;99.90;;;;;;5019546;28;21086;-74
2022/10/18 00:05:46;;;;;;;0.00;0.00;;;15.70;99.90;;;;;;5020919;28;20442;-74
2022/10/18 00:08:15;;;;;;;0.00;0.00;;;15.70;99.90;;;;;;5021196;28;20440;-75
2022/10/18 00:10:43;;;;;;;0.00;0.00;;;15.70;99.90;;;;;;5020205;28;20470;-76
2022/10/18 00:13:11;;;;;;;0.00;0.00;;;15.70;99.90;;;;;;5014060;28;20442;-75
2022/10/18 00:15:39;;;;;;;0.00;0.00;;;15.70;99.90;;;;;;5018437;28;20507;-75
2022/10/18 00:18:07;;;;;;;0.00;0.00;;;15.60;99.90;;;;;;5020495;28;20916;-74
2022/10/18 00:20:35;;;;;;;0.00;0.00;;;15.60;99.90;;;;;;5022848;28;20469;-73
2022/10/18 00:23:03;;;;;;;0.00;0.00;;;15.60;99.90;;;;;;5021505;28;21093;-73
2022/10/18 00:25:32;;;;;;;0.00;0.00;;;15.50;99.90;;;;;;5017979;28;20442;-73
2022/10/18 00:28:00;;;;;;;0.00;0.00;;;15.50;99.90;;;;;;5022350;28;20442;-74
2022/10/18 00:30:28;;;;;;;0.00;0.00;;;15.50;99.90;;;;;;5022833;28;20872;-74
2022/10/18 00:32:55;;;;;;;0.00;0.00;;;15.60;99.90;;;;;;5023062;28;20441;-73
2022/10/18 00:35:23;;;;;;;0.00;0.00;;;15.50;99.90;;;;;;5017021;28;20499;-74
2022/10/18 00:37:51;;;;;;;0.00;0.00;;;15.50;99.90;;;;;;5014715;28;20454;-74
2022/10/18 00:40:19;;;;;;;0.00;0.00;;;15.50;99.90;;;;;;5025240;28;20489;-75
2022/10/18 00:42:48;;;;;;;0.00;0.00;;;15.50;99.90;;;;;;5019285;28;20502;-75
2022/10/18 00:45:20;;;;;;;0.00;0.00;;;15.60;99.90;;;;;;5023266;28;20494;-75
2022/10/18 00:47:52;;;;;;;0.00;0.00;;;15.60;99.90;;;;;;5022429;28;20446;-75
2022/10/18 00:50:22;;;;;;;0.00;0.00;;;15.70;99.90;;;;;;5021548;28;20477;-75
2022/10/18 00:52:53;;;;;;;0.00;0.00;;;15.70;99.90;;;;;;5021487;28;20921;-74
2022/10/18 00:55:22;;;;;;;0.00;0.00;;;15.70;99.90;;;;;;5023625;28;20493;-74
2022/10/18 00:57:51;;;;;;;0.00;0.00;;;15.70;99.90;;;;;;5016241;28;21075;-75
2022/10/18 01:00:24;;;;;;;0.00;0.00;;;15.60;99.90;;;;;;5023846;28;20495;-75
2022/10/18 01:02:52;;;;;;;0.00;0.00;;;15.50;99.90;;;;;;5014822;28;20982;-75
2022/10/18 01:05:20;;;;;;;0.00;0.00;;;15.50;99.90;;;;;;5023047;28;20442;-75
2022/10/18 01:08:17;;;;;;;0.00;0.00;;;15.40;99.90;;;;;;5019648;28;20504;-75
2022/10/18 01:10:54;;;;;;;0.00;0.00;;;15.40;99.90;;;;;;5021105;28;20489;-75
2022/10/18 01:13:35;;;;;;;0.00;0.00;;;15.30;99.90;;;;;;5021629;28;20449;-75
2022/10/18 01:16:10;;;;;;;0.00;0.00;;;15.30;99.90;;;;;;5021522;28;20461;-75
2022/10/18 01:18:44;;;;;;;0.00;0.00;;;15.20;99.90;;;;;;5016845;28;20436;-75
2022/10/18 01:21:39;;;;;;;0.00;0.00;;;15.20;99.90;;;;;;5021182;28;20469;-75
2022/10/18 01:24:50;;;;;;;0.00;0.00;;;15.20;99.90;;;;;;5008015;28;20489;-74
2022/10/18 01:27:35;;;;;;;0.00;0.00;;;15.10;99.90;;;;;;5016836;28;20441;-75
2022/10/18 01:30:32;;;;;;;0.00;0.00;;;15.10;99.90;;;;;;5020192;28;20493;-75
2022/10/18 01:33:05;;;;;;;0.00;0.00;;;15.00;99.90;;;;;;5023988;28;20553;-75
2022/10/18 01:35:39;;;;;;;0.00;0.00;;;15.00;99.90;;;;;;5022122;28;20446;-76
2022/10/18 01:38:11;;;;;;;0.00;0.00;;;15.00;99.90;;;;;;5017271;28;21003;-75
2022/10/18 01:40:42;;;;;;;0.00;0.00;;;15.00;99.90;;;;;;5020551;28;21396;-75
2022/10/18 01:43:10;;;;;;;0.00;0.00;;;15.00;99.90;;;;;;5016964;28;20466;-75
2022/10/18 01:45:40;;;;;;;0.00;0.00;;;15.00;99.90;;;;;;5017517;28;20510;-75
2022/10/18 01:48:10;;;;;;;0.00;0.00;;;15.00;99.90;;;;;;5020393;28;20496;-75
2022/10/18 01:50:38;;;;;;;0.00;0.00;;;15.00;99.90;;;;;;5020891;28;20486;-75
2022/10/18 01:53:05;;;;;;;0.00;0.00;;;15.00;99.90;;;;;;5020964;28;20823;-77
2022/10/18 01:55:38;;;;;;;0.00;0.00;;;15.10;99.90;;;;;;5016931;28;20542;-75
2022/10/18 01:58:15;;;;;;;0.00;0.00;;;15.10;99.90;;;;;;5020676;28;20442;-72
2022/10/18 02:00:45;;;;;;;0.00;0.00;;;15.20;99.90;;;;;;5028634;28;20458;-83
2022/10/18 02:03:21;;;;;;;0.00;0.00;;;15.30;99.90;;;;;;5028995;28;20596;-83
2022/10/18 02:05:54;;;;;;;0.00;0.00;;;15.30;99.90;;;;;;5019971;28;20460;-75
2022/10/18 02:08:28;;;;;;;0.00;0.00;;;15.40;99.90;;;;;;5019673;28;20482;-75
2022/10/18 02:11:00;;;;;;;0.00;0.00;;;15.30;99.90;;;;;;5022826;28;20858;-76
2022/10/18 02:13:32;;;;;;;0.00;0.00;;;15.30;99.90;;;;;;5022312;28;20980;-74
2022/10/18 02:22:33;;;;;;;0.00;0.00;;;15.10;99.90;;;;;;5027319;28;20539;-89
2022/10/18 02:25:04;;;;;;;0.00;0.00;;;15.00;99.90;;;;;;5027288;28;20899;-87
2022/10/18 02:27:32;;;;;;;0.00;0.00;;;15.00;99.90;;;;;;5027238;28;20460;-87
2022/10/18 02:30:00;;;;;;;0.00;0.00;;;15.00;99.90;;;;;;5023460;28;20470;-87
2022/10/18 02:32:34;;;;;;;0.00;0.00;;;15.00;99.90;;;;;;5023396;28;20474;-87
2022/10/18 02:35:06;;;;;;;0.00;0.00;;;15.00;99.90;;;;;;5023389;28;20462;-86
2022/10/18 02:37:38;;;;;;;0.00;0.00;;;15.00;99.90;;;;;;5030231;28;20437;-86
2022/10/18 02:40:09;;;;;;;0.00;0.00;;;14.90;99.90;;;;;;5028631;28;20441;-86
2022/10/18 02:42:39;;;;;;;0.00;0.00;;;14.90;99.90;;;;;;5023745;28;20722;-88
2022/10/18 02:45:08;;;;;;;0.00;0.00;;;14.90;99.90;;;;;;5035547;28;20951;-88
2022/10/18 02:47:35;;;;;;;0.00;0.00;;;14.90;99.90;;;;;;5027942;28;20434;-86
2022/10/18 02:50:04;;;;;;;0.00;0.00;;;14.90;99.90;;;;;;5028984;28;20859;-87
2022/10/18 02:52:32;;;;;;;0.00;0.00;;;14.90;99.90;;;;;;5028383;28;20507;-87
2022/10/18 02:55:01;;;;;;;0.00;0.00;;;15.00;99.90;;;;;;5027816;28;20450;-87
2022/10/18 02:57:28;;;;;;;0.00;0.00;;;15.10;99.90;;;;;;5031147;28;20491;-86
2022/10/18 02:59:57;;;;;;;0.00;0.00;;;15.20;99.90;;;;;;5034484;28;20437;-87
2022/10/18 03:02:25;;;;;;;0.00;0.00;;;15.20;99.90;;;;;;5049366;28;20453;-83
2022/10/18 03:04:53;;;;;;;0.00;0.00;;;15.30;99.90;;;;;;5038874;28;20477;-86
2022/10/18 03:07:21;;;;;;;0.00;0.00;;;15.40;99.90;;;;;;5030991;28;20913;-86
2022/10/18 03:09:49;;;;;;;0.00;0.00;;;15.40;99.90;;;;;;5030967;28;20446;-86
2022/10/18 03:12:18;;;;;;;0.00;0.00;;;15.40;99.90;;;;;;5029449;28;20535;-86
2022/10/18 03:14:45;;;;;;;0.00;0.00;;;15.40;99.90;;;;;;5027104;28;20473;-85
2022/10/18 03:17:13;;;;;;;0.00;0.00;;;15.40;99.90;;;;;;5031556;28;20503;-87
2022/10/18 03:19:41;;;;;;;0.00;0.00;;;15.40;99.90;;;;;;5025634;28;20515;-86
2022/10/18 03:22:09;;;;;;;0.00;0.00;;;15.40;99.90;;;;;;5029435;28;20478;-86
2022/10/18 03:24:37;;;;;;;0.00;0.00;;;15.30;99.90;;;;;;5030123;28;21190;-85
2022/10/18 03:27:04;;;;;;;0.00;0.00;;;15.30;99.90;;;;;;4677531;28;10000315;-86
2022/10/18 03:29:34;;;;;;;0.00;0.00;;;15.40;99.90;;;;;;5026530;28;20685;-86
2022/10/18 03:32:01;;;;;;;0.00;0.00;;;15.40;99.90;;;;;;5027093;28;20539;-86
2022/10/18 03:34:29;;;;;;;0.00;0.00;;;15.40;99.90;;;;;;5027513;28;20829;-86
2022/10/18 03:36:57;;;;;;;0.00;0.00;;;15.50;99.90;;;;;;5032688;28;20472;-86
2022/10/18 03:39:31;;;;;;;0.00;0.00;;;15.50;99.90;;;;;;5023875;28;20834;-86
2022/10/18 03:41:59;;;;;;;0.00;0.00;;;15.50;99.90;;;;;;5026623;28;20475;-86
2022/10/18 03:44:26;;;;;;;0.00;0.00;;;15.50;99.90;;;;;;5024071;28;20507;-86
2022/10/18 03:46:56;;;;;;;0.00;0.00;;;15.50;99.90;;;;;;5027605;28;20453;-86
2022/10/18 03:49:23;;;;;;;0.00;0.00;;;15.50;99.90;;;;;;5031633;28;20461;-86
2022/10/18 03:51:51;;;;;;;0.00;0.00;;;15.50;99.90;;;;;;5027767;28;20948;-86
2022/10/18 03:54:20;;;;;;;0.00;0.00;;;15.50;99.90;;;;;;5030996;28;20507;-86
2022/10/18 03:56:48;;;;;;;0.00;0.00;;;15.40;99.90;;;;;;5029046;28;20453;-86
2022/10/18 03:59:16;;;;;;;0.00;0.00;;;15.40;99.90;;;;;;5019358;28;20466;-87
2022/10/18 04:01:44;;;;;;;0.00;0.00;;;15.30;99.90;;;;;;5028465;28;20468;-87
2022/10/18 04:04:13;;;;;;;0.00;0.00;;;15.30;99.90;;;;;;5027523;28;20964;-87
2022/10/18 04:06:41;;;;;;;0.00;0.00;;;15.20;99.90;;;;;;5051088;28;20434;-87
2022/10/18 04:09:09;;;;;;;0.00;0.00;;;15.10;99.90;;;;;;5024128;28;20453;-88
2022/10/18 04:11:37;;;;;;;0.00;0.00;;;15.00;99.90;;;;;;5031751;28;20470;-87
2022/10/18 04:14:05;;;;;;;0.00;0.00;;;15.00;99.90;;;;;;5030864;28;20444;-87
2022/10/18 04:16:33;;;;;;;0.00;0.00;;;14.90;99.90;;;;;;5021699;28;20446;-86
2022/10/18 04:19:01;;;;;;;0.00;0.00;;;14.80;99.90;;;;;;5026193;28;20457;-86
2022/10/18 04:21:30;;;;;;;0.00;0.00;;;14.80;99.90;;;;;;5029295;28;20488;-87
2022/10/18 04:23:58;;;;;;;0.00;0.00;;;14.80;99.90;;;;;;5034080;28;185287;-87
2022/10/18 04:26:26;;;;;;;0.00;0.00;;;14.70;99.90;;;;;;5029176;28;20460;-89
2022/10/18 04:28:53;;;;;;;0.00;0.00;;;14.70;99.90;;;;;;5029810;28;20796;-87
2022/10/18 04:31:21;;;;;;;0.00;0.00;;;14.60;99.90;;;;;;5025956;28;20516;-88
2022/10/18 04:33:49;;;;;;;0.00;0.00;;;14.60;99.90;;;;;;5022859;28;20485;-88
2022/10/18 04:36:17;;;;;;;0.00;0.00;;;14.60;99.90;;;;;;5026736;28;20469;-88
2022/10/18 04:38:46;;;;;;;0.00;0.00;;;14.60;99.90;;;;;;5025488;28;20439;-87
2022/10/18 04:41:14;;;;;;;0.00;0.00;;;14.60;99.90;;;;;;5021444;28;20535;-89
2022/10/18 04:44:47;;;;;;;;;;;;;;;;;;;;;
2022/10/18 04:51:10;;;;;;;0.00;0.00;;;14.50;99.90;;;;;;4936746;29;20464;-88
2022/10/18 04:56:57;;;;;;;0.00;0.00;;;14.50;99.90;;;;;;4967879;28;20586;-89
2022/10/18 04:59:25;;;;;;;0.00;0.00;;;14.60;99.90;;;;;;4973634;28;20457;-88
2022/10/18 05:02:00;;;;;;;0.00;0.00;;;14.60;99.90;;;;;;4979384;28;20472;-91
2022/10/18 05:04:28;;;;;;;0.00;0.00;;;14.60;99.90;;;;;;4970321;28;20483;-89
2022/10/18 05:06:56;;;;;;;0.00;0.00;;;14.60;99.90;;;;;;4965304;28;20904;-88
2022/10/18 05:09:23;;;;;;;0.00;0.00;;;14.70;99.90;;;;;;4980758;28;20439;-85
2022/10/18 05:11:51;;;;;;;0.00;0.00;;;14.80;99.90;;;;;;4980109;28;20568;-87
2022/10/18 05:14:21;;;;;;;0.00;0.00;;;14.80;99.90;;;;;;5013885;28;20587;-87
2022/10/18 05:16:48;;;;;;;0.00;0.00;;;14.80;99.90;;;;;;5015028;28;20454;-88
2022/10/18 05:19:16;;;;;;;0.00;0.00;;;14.80;99.90;;;;;;5025744;28;20449;-88
2022/10/18 05:21:44;;;;;;;0.00;0.00;;;14.80;99.90;;;;;;5027445;28;20477;-88
2022/10/18 05:24:12;;;;;;;0.00;0.00;;;14.80;99.90;;;;;;5028194;28;20480;-88
2022/10/18 05:26:40;;;;;;;0.00;0.00;;;14.80;99.90;;;;;;5026675;28;20917;-90
2022/10/18 05:29:08;;;;;;;0.00;0.00;;;14.90;99.90;;;;;;5028046;28;20464;-88
2022/10/18 05:31:38;;;;;;;0.00;0.00;;;15.00;99.90;;;;;;5029619;28;20477;-91
2022/10/18 05:34:05;;;;;;;0.00;0.00;;;15.00;99.90;;;;;;5025322;28;20458;-87
2022/10/18 05:36:33;;;;;;;0.00;0.00;;;15.10;99.90;;;;;;5023060;28;20446;-88
2022/10/18 05:39:03;;;;;;;0.00;0.00;;;15.10;99.90;;;;;;5031081;28;20449;-86
2022/10/18 05:41:32;;;;;;;0.00;0.00;;;15.10;99.90;;;;;;5025613;28;21049;-86
2022/10/18 05:44:03;;;;;;;0.00;0.00;;;15.10;99.90;;;;;;5030658;28;20439;-85
2022/10/18 05:46:31;;;;;;;0.00;0.00;;;15.10;99.90;;;;;;5030844;28;20543;-88
2022/10/18 05:49:01;;;;;;;0.00;0.00;;;15.10;99.90;;;;;;5027453;28;20872;-86
2022/10/18 05:51:28;;;;;;;0.00;0.00;;;15.10;99.90;;;;;;5030343;28;20465;-88
2022/10/18 05:53:57;;;;;;;0.00;0.00;;;15.20;99.90;;;;;;5021827;28;20450;-88
2022/10/18 05:56:25;;;;;;;0.00;0.00;;;15.20;99.90;;;;;;5031086;28;20484;-88
2022/10/18 05:58:53;;;;;;;0.00;0.00;;;15.20;99.90;;;;;;5022547;28;20480;-88
2022/10/18 06:01:21;;;;;;;0.00;0.00;;;15.20;99.90;;;;;;4676054;28;10000149;-87
2022/10/18 06:03:50;;;;;;;0.00;0.00;;;15.20;99.90;;;;;;5026300;28;20211;-88
2022/10/18 06:06:19;;;;;;;0.00;0.00;;;15.20;99.90;;;;;;5026216;28;20482;-88
2022/10/18 06:09:05;;;;;;;0.00;0.00;;;15.20;99.90;;;;;;5029625;28;20484;-89
2022/10/18 06:11:36;;;;;;;0.00;0.00;;;15.20;99.90;;;;;;5034333;28;21363;-88
2022/10/18 06:14:19;;;;;;;0.00;0.00;;;15.20;99.90;;;;;;5053476;28;20469;-90
2022/10/18 06:16:51;;;;;;;0.00;0.00;;;15.20;99.90;;;;;;5034623;28;20483;-89
2022/10/18 06:19:25;;;;;;;0.00;0.00;;;15.20;99.90;;;;;;5032284;28;21023;-88
2022/10/18 06:22:07;;;;;;;0.00;0.00;;;15.30;99.90;;;;;;5034660;28;20540;-91
2022/10/18 06:25:08;;;;;;;0.00;0.00;;;15.30;99.90;;;;;;5027556;28;20454;-89
2022/10/18 06:28:12;;;;;;;0.00;0.00;;;15.30;99.90;;;;;;5018386;28;20504;-88
2022/10/18 06:30:52;;;;;;;0.00;0.00;;;15.40;99.90;;;;;;5015967;28;20532;-89
2022/10/18 06:37:13;;;;;;;0.00;0.00;;;15.50;99.90;;;;;;5023682;28;20480;-90
2022/10/18 06:39:41;;;;;;;0.00;0.00;;;15.30;99.90;;;;;;5020443;28;20466;-88
2022/10/18 06:42:09;;;;;;;0.00;0.00;;;15.30;99.90;;;;;;5023615;28;20485;-89
2022/10/18 06:44:40;;;;;;;0.00;0.00;;;15.20;99.90;;;;;;5033790;28;20792;-88
2022/10/18 06:47:08;;;;;;;0.00;0.00;;;15.20;99.90;;;;;;5030569;28;20453;-87
2022/10/18 06:49:36;;;;;;;0.00;0.00;;;15.20;99.90;;;;;;5023392;28;20460;-89
2022/10/18 06:52:06;;;;;;;0.00;0.00;;;15.20;99.90;;;;;;5028232;28;20480;-89
2022/10/18 06:54:35;;;;;;;0.00;0.00;;;15.30;99.90;;;;;;5033469;28;20532;-90
2022/10/18 06:57:03;;;;;;;0.00;0.00;;;15.30;99.90;;;;;;5024941;28;20500;-91
2022/10/18 06:59:32;;;;;;;0.00;0.00;;;15.30;99.90;;;;;;5032637;28;20467;-92
2022/10/18 07:02:00;;;;;;;0.00;0.00;;;15.30;99.90;;;;;;5027837;28;20857;-90
2022/10/18 07:04:31;;;;;;;0.00;0.00;;;15.30;99.90;;;;;;5035492;28;20464;-90
2022/10/18 07:07:08;;;;;;;0.00;0.00;;;15.30;99.90;;;;;;5046439;28;20461;-91
2022/10/18 07:09:38;;;;;;;0.00;0.00;;;15.30;99.90;;;;;;5045909;28;20449;-90
2022/10/18 07:12:07;;;;;;;0.00;0.00;;;15.40;99.90;;;;;;5028751;28;20482;-91
2022/10/18 07:14:40;;;;;;;0.00;0.00;;;15.50;99.90;;;;;;5029284;28;20457;-92
2022/10/18 07:17:09;;;;;;;0.00;0.00;;;15.50;99.90;;;;;;5009407;28;20469;-92
2022/10/18 07:19:45;;;;;;;0.00;0.00;;;15.50;99.90;;;;;;5037003;28;20461;-91
2022/10/18 07:22:19;;;;;;;0.00;0.00;;;15.50;99.90;;;;;;5031969;28;20469;-92
2022/10/18 07:25:22;;;;;;;0.00;0.00;;;15.50;99.90;;;;;;5057020;28;20461;-90
2022/10/18 07:27:56;;;;;;;0.00;0.00;;;15.60;99.90;;;;;;5048667;28;20509;-90
2022/10/18 07:30:27;;;;;;;0.00;0.00;;;15.70;99.90;;;;;;5046309;28;20493;-91
2022/10/18 07:33:05;;;;;;;0.00;0.00;;;15.70;99.90;;;;;;5038814;28;20453;-90
2022/10/18 07:35:33;;;;;;;0.00;0.00;;;15.70;99.90;;;;;;5036992;28;20833;-91
2022/10/18 07:38:15;;;;;;;0.00;0.00;;;15.70;99.90;;;;;;5038622;28;20951;-90
2022/10/18 07:40:47;;;;;;;0.00;0.00;;;15.70;99.90;;;;;;5031140;28;20480;-90
2022/10/18 07:43:22;;;;;;;0.00;0.00;;;15.70;99.90;;;;;;5044837;28;20445;-91
2022/10/18 07:46:36;;;;;;;0.00;0.00;;;15.80;99.90;;;;;;5050710;28;20876;-92
2022/10/18 07:49:08;;;;;;;0.00;0.00;;;15.70;99.90;;;;;;4987815;28;20456;-91
2022/10/18 07:51:42;;;;;;;0.00;0.00;;;15.70;99.90;;;;;;4990154;28;20481;-91
2022/10/18 07:54:13;;;;;;;0.00;0.00;;;15.70;99.90;;;;;;4988592;28;20466;-91
2022/10/18 07:56:43;;;;;;;0.00;0.00;;;15.70;99.90;;;;;;5001899;28;20466;-91
2022/10/18 07:59:14;;;;;;;0.00;0.00;;;15.70;99.90;;;;;;5007560;28;20554;-91
2022/10/18 08:01:47;;;;;;;0.00;0.00;;;15.70;99.90;;;;;;5044509;28;20525;-92
2022/10/18 08:04:20;;;;;;;0.00;0.00;;;15.80;99.90;;;;;;5025228;28;20814;-91
2022/10/18 08:07:03;;;;;;;0.00;0.00;;;15.80;99.90;;;;;;5051822;28;21072;-75
2022/10/18 08:09:31;;;;;;;0.00;0.00;;;15.90;99.90;;;;;;5053557;28;20449;-75
2022/10/18 08:12:00;;;;;;;0.00;0.00;;;15.90;99.90;;;;;;5021571;28;20516;-76
2022/10/18 08:14:28;;;;;;;0.00;0.00;;;15.90;99.90;;;;;;5020644;28;20521;-76
2022/10/18 08:16:56;;;;;;;0.00;0.00;;;15.80;99.90;;;;;;5022747;28;20461;-76
2022/10/18 08:19:23;;;;;;;0.00;0.00;;;15.80;99.90;;;;;;5016870;28;20453;-76
2022/10/18 08:21:51;;;;;;;0.00;0.00;;;15.80;99.90;;;;;;5016286;28;20476;-76
2022/10/18 08:24:19;;;;;;;0.00;0.00;;;15.80;99.90;;;;;;5016175;28;20457;-76
2022/10/18 08:26:49;;;;;;;0.00;0.00;;;15.70;99.90;;;;;;5022490;28;20484;-77
2022/10/18 08:29:18;;;;;;;0.00;0.00;;;15.70;99.90;;;;;;5021640;28;20479;-76
2022/10/18 08:31:52;;;;;;;0.00;0.00;;;15.70;99.90;;;;;;5018892;28;20477;-76
2022/10/18 08:34:20;;;;;;;0.00;0.00;;;15.70;99.90;;;;;;5020869;28;20457;-77
2022/10/18 08:36:47;;;;;;;0.00;0.00;;;15.60;99.90;;;;;;5023944;28;20856;-76
2022/10/18 08:39:15;;;;;;;0.00;0.00;;;15.60;99.90;;;;;;5021932;28;20449;-76
2022/10/18 08:42:09;;;;;;;0.00;0.00;;;15.60;99.90;;;;;;5021683;28;20584;-76
2022/10/18 08:44:43;;;;;;;0.00;0.00;;;15.60;99.90;;;;;;5024511;28;20444;-76
2022/10/18 08:47:15;;;;;;;0.00;0.00;;;15.50;99.90;;;;;;5022031;28;20512;-76
2022/10/18 08:49:46;;;;;;;0.00;0.00;;;15.50;99.90;;;;;;5022425;28;20453;-76
2022/10/18 08:52:24;;;;;;;0.00;0.00;;;15.50;99.90;;;;;;5021998;28;20466;-76
2022/10/18 08:55:00;;;;;;;0.00;0.00;;;15.50;99.90;;;;;;5025838;28;20453;-76
2022/10/18 08:57:30;;;;;;;0.00;0.00;;;15.50;99.90;;;;;;5024364;28;20449;-76
2022/10/18 08:59:59;;;;;;;0.00;0.00;;;15.40;99.90;;;;;;5024964;28;20461;-76
2022/10/18 09:02:41;;;;;;;0.00;0.00;;;15.40;99.90;;;;;;5020453;28;20466;-75
2022/10/18 09:05:22;;;;;;;0.00;0.00;;;15.30;99.90;;;;;;5023147;28;20458;-77
2022/10/18 09:08:20;;;;;;;0.00;0.00;;;15.20;99.90;;;;;;5024436;28;20848;-76
2022/10/18 09:11:02;;;;;;;0.00;0.00;;;15.20;99.90;;;;;;5015270;28;20474;-76
2022/10/18 09:14:10;;;;;;;0.00;0.00;;;15.00;99.90;;;;;;5019881;28;20446;-75
2022/10/18 09:16:46;;;;;;;0.00;0.00;;;14.90;99.90;;;;;;5017062;28;20971;-77
2022/10/18 09:19:26;;;;;;;0.00;0.00;;;14.80;99.90;;;;;;5024325;28;20510;-77
2022/10/18 09:21:55;;;;;;;0.00;0.00;;;14.80;99.90;;;;;;5021064;28;20468;-75
2022/10/18 09:24:27;;;;;;;0.00;0.00;;;14.80;99.90;;;;;;5019032;28;20952;-75
2022/10/18 09:27:01;;;;;;;0.00;0.00;;;14.70;99.90;;;;;;5018527;28;20900;-75
2022/10/18 09:29:47;;;;;;;0.00;0.00;;;14.70;99.90;;;;;;5020711;28;20937;-75
2022/10/18 09:32:26;;;;;;;0.00;0.00;;;14.70;99.90;;;;;;5020088;28;20457;-75
2022/10/18 09:35:00;;;;;;;0.00;0.00;;;14.70;99.90;;;;;;5021975;28;20933;-78
2022/10/18 09:37:32;;;;;;;0.00;0.00;;;14.70;99.90;;;;;;5021444;28;20451;-78
2022/10/18 09:40:06;;;;;;;0.00;0.00;;;14.70;99.90;;;;;;5023847;28;20450;-78
2022/10/18 09:42:39;;;;;;;0.00;0.00;;;14.80;99.90;;;;;;5024420;28;20461;-77
2022/10/18 09:45:20;;;;;;;0.00;0.00;;;14.80;99.90;;;;;;5020719;28;20952;-78
2022/10/18 09:47:55;;;;;;;0.00;0.00;;;14.90;99.90;;;;;;5019270;28;20484;-78
2022/10/18 09:50:27;;;;;;;0.00;0.00;;;15.00;99.90;;;;;;5017926;28;20454;-77
2022/10/18 09:53:06;;;;;;;0.00;0.00;;;15.10;99.90;;;;;;5021929;28;21019;-77
2022/10/18 09:55:40;;;;;;;0.00;0.00;;;15.20;99.90;;;;;;5015223;28;20535;-77
2022/10/18 09:58:11;;;;;;;0.00;0.00;;;15.20;99.90;;;;;;5018239;28;21025;-78
2022/10/18 10:00:44;;;;;;;0.00;0.00;;;15.20;99.90;;;;;;5022801;28;20477;-77
2022/10/18 10:03:14;;;;;;;0.00;0.00;;;15.30;99.90;;;;;;5020749;28;20497;-78
2022/10/18 10:05:42;;;;;;;0.00;0.00;;;15.30;99.90;;;;;;5015072;28;20836;-79
2022/10/18 10:08:11;;;;;;;0.00;0.00;;;15.30;99.90;;;;;;5021159;28;20493;-78
2022/10/18 10:10:41;;;;;;;0.00;0.00;;;15.30;99.90;;;;;;5020944;28;20572;-77
2022/10/18 10:13:16;;;;;;;0.00;0.00;;;15.30;99.90;;;;;;5023554;28;20449;-79
2022/10/18 10:15:51;;;;;;;0.00;0.00;;;15.30;99.90;;;;;;5020696;28;20449;-78
2022/10/18 10:18:23;;;;;;;0.00;0.00;;;15.30;99.90;;;;;;5014144;28;20455;-77
2022/10/18 10:20:53;;;;;;;0.00;0.00;;;15.20;99.90;;;;;;5020900;28;20498;-76
2022/10/18 10:23:24;;;;;;;0.00;0.00;;;15.20;99.90;;;;;;5018492;28;21003;-76
2022/10/18 10:25:54;;;;;;;0.00;0.00;;;15.30;99.90;;;;;;5022930;28;20453;-74
2022/10/18 10:28:25;;;;;;;0.00;0.00;;;15.30;99.90;;;;;;5020570;28;20898;-73
2022/10/18 10:30:53;;;;;;;0.00;0.00;;;15.30;99.90;;;;;;5022014;28;20973;-73
2022/10/18 10:33:34;;;;;;;0.00;0.00;;;15.40;99.90;;;;;;5016160;28;20458;-73
2022/10/18 10:36:04;;;;;;;0.00;0.00;;;15.50;99.90;;;;;;5020965;28;20457;-73
2022/10/18 10:38:32;;;;;;;0.00;0.00;;;15.50;99.90;;;;;;5019617;28;20450;-73
2022/10/18 10:41:00;;;;;;;0.00;0.00;;;15.70;99.90;;;;;;5024824;28;20492;-73
2022/10/18 10:43:31;;;;;;;0.00;0.00;;;15.80;99.90;;;;;;5018778;28;20454;-73
2022/10/18 10:46:08;;;;;;;0.00;0.00;;;15.90;99.90;;;;;;5019996;28;20464;-74
2022/10/18 10:48:46;;;;;;;0.00;0.00;;;15.90;99.90;;;;;;5019112;28;20485;-73
2022/10/18 10:51:17;;;;;;;0.00;0.00;;;15.90;99.90;;;;;;5016801;28;20456;-75
2022/10/18 10:53:51;;;;;;;0.00;0.00;;;15.90;99.90;;;;;;5014643;28;20465;-75
2022/10/18 10:56:29;;;;;;;0.00;0.00;;;15.90;99.90;;;;;;5022710;28;20457;-75
2022/10/18 10:59:04;;;;;;;0.00;0.00;;;15.90;99.90;;;;;;5022686;28;20481;-76
2022/10/18 11:01:33;;;;;;;0.00;0.00;;;15.90;99.90;;;;;;5020405;28;20457;-74
2022/10/18 11:04:23;;;;;;;0.00;0.00;;;15.90;99.90;;;;;;5024203;28;20481;-74
2022/10/18 11:07:00;;;;;;;0.00;0.00;;;16.00;99.90;;;;;;5025100;28;20447;-74
2022/10/18 11:09:42;;;;;;;0.00;0.00;;;16.10;99.90;;;;;;5016152;28;20492;-74
2022/10/18 11:12:22;;;;;;;0.00;0.00;;;16.30;99.90;;;;;;5024086;28;20483;-75
2022/10/18 11:14:59;;;;;;;0.00;0.00;;;16.30;99.90;;;;;;5024140;28;20464;-74
2022/10/18 11:17:35;;;;;;;0.00;0.00;;;16.30;99.90;;;;;;5000457;28;20465;-74
2022/10/18 11:20:21;;;;;;;0.00;0.00;;;16.20;99.90;;;;;;5020127;28;20466;-73
2022/10/18 11:22:59;;;;;;;0.00;0.00;;;16.30;99.90;;;;;;5024811;28;20446;-73
2022/10/18 11:25:45;;;;;;;0.00;0.00;;;16.30;99.90;;;;;;5020436;28;20940;-74
2022/10/18 11:28:28;;;;;;;0.00;0.00;;;16.30;99.90;;;;;;5023492;28;20505;-73
2022/10/18 11:31:15;;;;;;;0.00;0.00;;;16.30;99.90;;;;;;5023871;28;20472;-73
2022/10/18 11:34:02;;;;;;;0.00;0.00;;;16.30;99.90;;;;;;5022391;28;20450;-73
2022/10/18 11:36:46;;;;;;;0.00;0.00;;;16.30;99.90;;;;;;5024289;28;20449;-73
2022/10/18 11:39:36;;;;;;;0.00;0.00;;;16.30;99.90;;;;;;5024746;28;20459;-72
2022/10/18 11:42:16;;;;;;;0.00;0.00;;;16.30;99.90;;;;;;5024301;28;20486;-75
2022/10/18 11:44:55;;;;;;;0.00;0.00;;;16.20;99.90;;;;;;5014865;28;20531;-75
2022/10/18 11:47:29;;;;;;;0.00;0.00;;;16.10;99.90;;;;;;5023270;28;20437;-75
2022/10/18 11:50:10;;;;;;;0.00;0.00;;;16.00;99.90;;;;;;5022083;28;20452;-75
2022/10/18 11:52:53;;;;;;;0.00;0.00;;;15.90;99.90;;;;;;5018862;28;20900;-74
2022/10/18 11:55:38;;;;;;;0.00;0.00;;;15.80;99.90;;;;;;5024949;28;20455;-74
2022/10/18 11:58:23;;;;;;;0.00;0.00;;;15.80;99.90;;;;;;5026384;28;20437;-74
2022/10/18 12:00:55;;;;;;;0.00;0.00;;;15.80;99.90;;;;;;5008806;28;20473;-75
2022/10/18 12:03:30;;;;;;;0.00;0.00;;;15.80;99.90;;;;;;5016940;28;20453;-74
2022/10/18 12:06:10;;;;;;;0.00;0.00;;;15.80;99.90;;;;;;5016593;28;20477;-75
2022/10/18 12:08:42;;;;;;;0.00;0.00;;;15.80;99.90;;;;;;5014518;28;20477;-75
2022/10/18 12:11:16;;;;;;;0.00;0.00;;;15.80;99.90;;;;;;5022969;28;20467;-74
2022/10/18 12:13:48;;;;;;;0.00;0.00;;;15.80;99.90;;;;;;5024990;28;20442;-75
2022/10/18 12:16:22;;;;;;;0.00;0.00;;;15.70;99.90;;;;;;5023954;28;20480;-76
2022/10/18 12:19:18;;;;;;;0.00;0.00;;;15.80;99.90;;;;;;5022687;28;20845;-75
2022/10/18 12:21:54;;;;;;;0.00;0.00;;;16.00;99.90;;;;;;5018234;28;21015;-75
2022/10/18 12:24:27;;;;;;;0.00;0.00;;;16.20;99.90;;;;;;5024585;28;20439;-75
2022/10/18 12:26:59;;;;;;;0.00;0.00;;;16.30;99.90;;;;;;4998553;28;20888;-75
2022/10/18 12:29:32;;;;;;;0.00;0.00;;;16.50;99.90;;;;;;5011706;28;20492;-75
2022/10/18 12:32:02;;;;;;;0.00;0.00;;;16.70;99.90;;;;;;5017033;28;20485;-75
2022/10/18 12:34:35;;;;;;;0.00;0.00;;;16.80;99.90;;;;;;5024332;28;20448;-75
2022/10/18 12:37:26;;;;;;;0.00;0.00;;;16.80;99.90;;;;;;5010114;28;20888;-75
2022/10/18 12:39:59;;;;;;;0.00;0.00;;;16.80;99.90;;;;;;5013460;28;20446;-75
2022/10/18 12:42:48;;;;;;;0.00;0.00;;;16.80;99.90;;;;;;5019451;28;20472;-74
2022/10/18 12:45:29;;;;;;;0.00;0.00;;;16.70;99.90;;;;;;5022741;28;20443;-72
2022/10/18 12:48:00;;;;;;;0.00;0.00;;;16.70;99.90;;;;;;5017289;28;20975;-74
2022/10/18 12:50:31;;;;;;;0.00;0.00;;;16.60;99.90;;;;;;5019881;28;20460;-73
2022/10/18 12:53:17;;;;;;;0.00;0.00;;;16.60;99.90;;;;;;5023124;28;20454;-70
2022/10/18 12:55:50;;;;;;;0.00;0.00;;;16.60;99.90;;;;;;5021380;28;20454;-73
2022/10/18 12:58:36;;;;;;;0.00;0.00;;;16.60;99.90;;;;;;5019932;28;20477;-72
2022/10/18 13:01:06;;;;;;;0.00;0.00;;;16.50;99.90;;;;;;5022715;28;20473;-73
2022/10/18 13:04:00;;;;;;;0.00;0.00;;;16.40;99.90;;;;;;5020829;28;20476;-73
2022/10/18 13:07:11;;;;;;;0.00;0.00;;;16.40;99.90;;;;;;5019405;28;20464;-73
2022/10/18 13:09:40;;;;;;;0.00;0.00;;;16.30;99.90;;;;;;5017762;28;20490;-73
2022/10/18 13:12:55;;;;;;;0.00;0.00;;;16.30;99.90;;;;;;5021265;28;20433;-72
2022/10/18 13:15:41;;;;;;;0.00;0.00;;;16.30;99.90;;;;;;5013875;28;20972;-73
2022/10/18 13:18:20;;;;;;;0.00;0.00;;;16.30;99.90;;;;;;5019778;28;20976;-73
2022/10/18 13:20:56;;;;;;;0.00;0.00;;;16.30;99.90;;;;;;5018643;28;20474;-72
2022/10/18 13:23:37;;;;;;;0.00;0.00;;;16.50;99.90;;;;;;5019098;28;20459;-73
2022/10/18 13:26:19;;;;;;;0.00;0.00;;;16.70;99.90;;;;;;5019273;28;20516;-72
2022/10/18 13:28:57;;;;;;;0.00;0.00;;;16.90;99.90;;;;;;5018463;28;20473;-72
2022/10/18 13:31:35;;;;;;;0.00;0.00;;;16.90;99.90;;;;;;5022143;28;20462;-72
2022/10/18 13:34:25;;;;;;;0.00;0.00;;;16.80;99.90;;;;;;5018861;28;20459;-73
2022/10/18 13:36:58;;;;;;;0.00;0.00;;;16.90;99.90;;;;;;5020977;28;20459;-73
2022/10/18 13:39:27;;;;;;;0.00;0.00;;;16.80;99.90;;;;;;5019318;28;20470;-73